createdAt,value
2024-01-30T00:00:18.535Z,20.71
2024-01-30T00:02:47.065Z,20.71
2024-01-30T00:05:15.892Z,20.72
2024-01-30T00:07:43.911Z,20.72
2024-01-30T00:10:12.310Z,20.73
2024-01-30T00:12:40.423Z,20.75
2024-01-30T00:15:11.704Z,20.72
2024-01-30T00:17:41.157Z,20.73
2024-01-30T00:20:10.853Z,20.73
2024-01-30T00:22:41.231Z,20.74
2024-01-30T00:25:10.210Z,20.73
2024-01-30T00:27:38.279Z,20.72
2024-01-30T00:30:07.882Z,20.73
2024-01-30T00:32:36.385Z,20.72
2024-01-30T00:35:06.964Z,20.72
2024-01-30T00:37:34.980Z,20.72
2024-01-30T00:40:03.084Z,20.71
2024-01-30T00:42:31.232Z,20.71
2024-01-30T00:44:59.338Z,20.71
2024-01-30T00:47:27.286Z,20.71
2024-01-30T00:49:55.643Z,20.69
2024-01-30T00:52:24.957Z,20.70
2024-01-30T00:54:53.351Z,20.70
2024-01-30T00:57:21.519Z,20.67
2024-01-30T00:59:49.509Z,20.68
2024-01-30T01:02:19.893Z,20.67
2024-01-30T01:04:48.165Z,20.67
2024-01-30T01:07:16.147Z,20.67
2024-01-30T01:09:45.529Z,20.66
2024-01-30T01:12:13.531Z,20.66
2024-01-30T01:14:44.316Z,20.65
2024-01-30T01:17:15.159Z,20.65
2024-01-30T01:19:46.091Z,20.64
2024-01-30T01:22:14.246Z,20.63
2024-01-30T01:24:42.222Z,20.63
2024-01-30T01:27:14.406Z,20.62
2024-01-30T01:29:42.368Z,20.61
2024-01-30T01:32:10.314Z,20.61
2024-01-30T01:34:38.516Z,20.60
2024-01-30T01:37:06.881Z,20.60
2024-01-30T01:39:34.904Z,20.60
2024-01-30T01:42:02.986Z,20.58
2024-01-30T01:44:32.424Z,20.59
2024-01-30T01:47:00.792Z,20.59
2024-01-30T01:49:30.495Z,20.59
2024-01-30T01:52:00.322Z,20.57
2024-01-30T01:54:30.139Z,20.59
2024-01-30T01:56:58.153Z,20.59
2024-01-30T01:59:27.059Z,20.57
2024-01-30T02:01:58.265Z,20.57
2024-01-30T02:04:26.462Z,20.57
2024-01-30T02:06:54.860Z,20.56
2024-01-30T02:09:22.891Z,20.57
2024-01-30T02:11:50.997Z,20.56
2024-01-30T02:14:19.044Z,20.57
2024-01-30T02:16:47.013Z,20.55
2024-01-30T02:19:16.605Z,20.55
2024-01-30T02:21:47.173Z,20.55
2024-01-30T02:24:15.275Z,20.56
2024-01-30T02:26:43.286Z,20.54
2024-01-30T02:29:11.239Z,20.54
2024-01-30T02:31:42.376Z,20.54
2024-01-30T02:34:10.477Z,20.53
2024-01-30T02:36:38.472Z,20.53
2024-01-30T02:39:07.816Z,20.52
2024-01-30T02:41:35.951Z,20.51
2024-01-30T02:44:04.230Z,20.50
2024-01-30T02:46:32.453Z,20.50
2024-01-30T02:49:00.488Z,20.49
2024-01-30T02:51:28.470Z,20.49
2024-01-30T02:53:56.456Z,20.48
2024-01-30T02:56:25.823Z,20.48
2024-01-30T02:58:53.779Z,20.48
2024-01-30T03:01:22.143Z,20.47
2024-01-30T03:03:50.347Z,20.46
2024-01-30T03:06:21.306Z,20.44
2024-01-30T03:08:51.870Z,20.43
2024-01-30T03:11:19.877Z,20.44
2024-01-30T03:13:50.987Z,20.43
2024-01-30T03:16:18.983Z,20.43
2024-01-30T03:18:47.078Z,20.42
2024-01-30T03:21:15.133Z,20.42
2024-01-30T03:23:43.237Z,20.41
2024-01-30T03:26:12.201Z,20.39
2024-01-30T03:28:40.236Z,20.39
2024-01-30T03:31:09.670Z,20.38
2024-01-30T03:33:38.997Z,20.37
2024-01-30T03:36:07.800Z,20.38
2024-01-30T03:38:37.344Z,20.36
2024-01-30T03:41:05.566Z,20.35
2024-01-30T03:43:36.561Z,20.35
2024-01-30T03:46:05.308Z,20.34
2024-01-30T03:48:34.895Z,20.35
2024-01-30T03:51:02.933Z,20.34
2024-01-30T03:53:30.981Z,20.34
2024-01-30T03:55:58.980Z,20.33
2024-01-30T03:58:27.066Z,20.33
2024-01-30T04:00:55.099Z,20.32
2024-01-30T04:03:25.614Z,20.33
2024-01-30T04:05:55.507Z,20.33
2024-01-30T04:08:23.565Z,20.33
2024-01-30T04:10:53.160Z,20.33
2024-01-30T04:13:21.322Z,20.33
2024-01-30T04:15:49.608Z,20.32
2024-01-30T04:18:17.685Z,20.31
2024-01-30T04:20:45.704Z,20.31
2024-01-30T04:23:17.048Z,20.31
2024-01-30T04:25:45.030Z,20.31
2024-01-30T04:28:14.026Z,20.31
2024-01-30T04:30:42.353Z,20.31
2024-01-30T04:33:10.559Z,20.31
2024-01-30T04:35:38.559Z,20.30
2024-01-30T04:38:06.535Z,20.30
2024-01-30T04:40:35.882Z,20.28
2024-01-30T04:43:03.855Z,20.27
2024-01-30T04:45:31.875Z,20.28
2024-01-30T04:47:59.986Z,20.29
2024-01-30T04:50:28.524Z,20.28
2024-01-30T04:52:56.464Z,20.28
2024-01-30T04:55:24.573Z,20.26
2024-01-30T04:57:55.254Z,20.26
2024-01-30T05:00:23.249Z,20.26
2024-01-30T05:02:53.648Z,20.24
2024-01-30T05:05:22.816Z,20.25
2024-01-30T05:07:51.368Z,20.25
2024-01-30T05:10:19.454Z,20.23
2024-01-30T05:12:47.469Z,20.22
2024-01-30T05:15:19.839Z,20.22
2024-01-30T05:17:47.841Z,20.20
2024-01-30T05:20:16.050Z,20.21
2024-01-30T05:22:46.290Z,20.20
2024-01-30T05:25:15.239Z,20.20
2024-01-30T05:27:43.403Z,20.19
2024-01-30T05:30:12.564Z,20.20
2024-01-30T05:32:42.072Z,20.19
2024-01-30T05:35:10.201Z,20.19
2024-01-30T05:37:38.161Z,20.19
2024-01-30T05:40:07.284Z,20.19
2024-01-30T05:42:37.986Z,20.19
2024-01-30T05:45:07.128Z,20.19
2024-01-30T05:47:35.151Z,20.18
2024-01-30T05:50:08.697Z,20.19
2024-01-30T05:52:36.928Z,20.18
2024-01-30T05:55:05.976Z,20.17
2024-01-30T05:57:34.007Z,20.17
2024-01-30T06:00:01.972Z,20.17
2024-01-30T06:02:29.903Z,20.16
2024-01-30T06:04:57.953Z,20.15
2024-01-30T06:07:27.623Z,20.14
2024-01-30T06:09:55.701Z,20.14
2024-01-30T06:12:23.728Z,20.14
2024-01-30T06:14:51.875Z,20.11
2024-01-30T06:17:20.013Z,20.13
2024-01-30T06:19:48.088Z,20.13
2024-01-30T06:22:17.412Z,20.12
2024-01-30T06:24:50.067Z,20.11
2024-01-30T06:27:18.685Z,20.10
2024-01-30T06:29:46.788Z,20.11
2024-01-30T06:32:14.855Z,20.09
2024-01-30T06:34:45.543Z,20.11
2024-01-30T06:37:14.039Z,20.08
2024-01-30T06:39:42.069Z,20.08
2024-01-30T06:42:12.252Z,20.07
2024-01-30T06:44:40.197Z,20.06
2024-01-30T06:47:08.271Z,20.06
2024-01-30T06:49:36.385Z,20.06
2024-01-30T06:52:04.590Z,20.04
2024-01-30T06:54:32.591Z,20.04
2024-01-30T06:57:00.638Z,20.03
2024-01-30T06:59:30.007Z,20.04
2024-01-30T07:01:58.096Z,20.04
2024-01-30T07:04:26.258Z,20.03
2024-01-30T07:06:55.661Z,20.02
2024-01-30T07:09:24.441Z,20.02
2024-01-30T07:11:52.396Z,20.02
2024-01-30T07:14:20.452Z,20.02
2024-01-30T07:16:49.787Z,20.02
2024-01-30T07:19:20.628Z,20.02
2024-01-30T07:21:54.270Z,20.01
2024-01-30T07:24:22.325Z,20.02
2024-01-30T07:26:52.253Z,20.02
2024-01-30T07:29:20.665Z,20.01
2024-01-30T07:31:49.991Z,20.01
2024-01-30T07:34:18.188Z,20.01
2024-01-30T07:36:47.347Z,20.01
2024-01-30T07:39:17.037Z,20.02
2024-01-30T07:41:45.036Z,20.00
2024-01-30T07:44:13.015Z,20.00
2024-01-30T07:46:40.969Z,20.00
2024-01-30T07:49:11.421Z,20.00
2024-01-30T07:51:40.957Z,19.99
2024-01-30T07:54:16.450Z,20.00
2024-01-30T07:56:47.475Z,20.02
2024-01-30T07:59:15.451Z,20.01
2024-01-30T08:01:43.639Z,20.01
2024-01-30T08:04:13.048Z,20.01
2024-01-30T08:06:44.547Z,20.01
2024-01-30T08:09:16.914Z,19.99
2024-01-30T08:11:44.843Z,20.03
2024-01-30T08:14:14.838Z,20.06
2024-01-30T08:16:42.860Z,20.04
2024-01-30T08:19:12.400Z,20.04
2024-01-30T08:21:43.089Z,20.06
2024-01-30T08:24:11.138Z,20.10
2024-01-30T08:26:39.756Z,20.11
2024-01-30T08:29:07.849Z,20.11
2024-01-30T08:31:36.040Z,20.06
2024-01-30T08:34:04.297Z,20.05
2024-01-30T08:36:36.671Z,20.02
2024-01-30T08:39:06.828Z,20.04
2024-01-30T08:41:34.963Z,20.05
2024-01-30T08:44:04.359Z,20.05
2024-01-30T08:46:32.882Z,20.07
2024-01-30T08:49:00.998Z,20.07
2024-01-30T08:51:29.111Z,20.08
2024-01-30T08:53:58.445Z,20.10
2024-01-30T08:56:26.535Z,20.10
2024-01-30T08:58:54.572Z,20.11
2024-01-30T09:01:22.700Z,20.11
2024-01-30T09:03:50.899Z,20.12
2024-01-30T09:06:19.032Z,20.11
2024-01-30T09:08:47.100Z,20.13
2024-01-30T09:11:17.666Z,20.12
2024-01-30T09:13:45.737Z,20.12
2024-01-30T09:16:13.820Z,20.13
2024-01-30T09:18:41.938Z,20.11
2024-01-30T09:21:10.109Z,20.06
2024-01-30T09:23:38.126Z,20.03
2024-01-30T09:26:06.441Z,20.03
2024-01-30T09:28:38.440Z,20.03
2024-01-30T09:31:06.638Z,20.02
2024-01-30T09:33:34.704Z,20.03
2024-01-30T09:36:02.684Z,20.05
2024-01-30T09:38:30.725Z,20.04
2024-01-30T09:41:05.795Z,20.01
2024-01-30T09:43:35.845Z,20.03
2024-01-30T09:46:10.292Z,20.02
2024-01-30T09:48:39.090Z,19.99
2024-01-30T09:51:07.601Z,19.92
2024-01-30T09:53:35.730Z,19.94
2024-01-30T09:56:08.125Z,19.94
2024-01-30T09:58:36.164Z,19.94
2024-01-30T10:01:04.400Z,19.94
2024-01-30T10:03:34.221Z,19.96
2024-01-30T10:06:03.535Z,19.96
2024-01-30T10:08:31.987Z,19.96
2024-01-30T10:11:00.279Z,19.97
2024-01-30T10:13:28.375Z,19.97
2024-01-30T10:15:57.737Z,19.99
2024-01-30T10:18:25.779Z,19.99
2024-01-30T10:20:55.400Z,20.01
2024-01-30T10:23:23.783Z,20.00
2024-01-30T10:25:54.661Z,20.01
2024-01-30T10:28:23.077Z,20.02
2024-01-30T10:31:02.797Z,20.02
2024-01-30T10:33:33.673Z,20.03
2024-01-30T10:36:05.553Z,20.05
2024-01-30T10:38:34.830Z,20.06
2024-01-30T10:41:05.153Z,20.04
2024-01-30T10:43:35.563Z,20.05
2024-01-30T10:46:18.952Z,20.02
2024-01-30T10:49:00.173Z,20.06
2024-01-30T10:51:30.577Z,20.06
2024-01-30T10:54:02.406Z,20.07
2024-01-30T10:56:32.579Z,20.11
2024-01-30T10:59:00.776Z,20.12
2024-01-30T11:01:30.792Z,20.13
2024-01-30T11:03:59.470Z,20.15
2024-01-30T11:06:29.381Z,20.14
2024-01-30T11:09:05.461Z,20.14
2024-01-30T11:11:33.568Z,20.16
2024-01-30T11:14:04.570Z,20.16
2024-01-30T11:16:34.649Z,20.16
2024-01-30T11:19:03.732Z,20.17
2024-01-30T11:21:33.250Z,20.16
2024-01-30T11:24:01.300Z,20.17
2024-01-30T11:26:31.370Z,20.17
2024-01-30T11:29:05.893Z,20.16
2024-01-30T11:31:34.238Z,20.17
2024-01-30T11:34:02.740Z,20.17
2024-01-30T11:36:32.119Z,20.19
2024-01-30T11:39:01.716Z,20.17
2024-01-30T11:41:31.370Z,20.19
2024-01-30T11:43:59.450Z,20.19
2024-01-30T11:46:27.881Z,20.18
2024-01-30T11:48:56.095Z,20.20
2024-01-30T11:51:24.198Z,20.20
2024-01-30T11:53:52.635Z,20.19
2024-01-30T11:56:21.972Z,20.19
2024-01-30T11:58:50.018Z,20.17
2024-01-30T12:01:19.381Z,20.15
2024-01-30T12:03:51.820Z,20.12
2024-01-30T12:06:22.991Z,20.11
2024-01-30T12:08:59.441Z,20.08
2024-01-30T12:11:31.417Z,20.06
2024-01-30T12:13:59.835Z,20.06
2024-01-30T12:16:27.988Z,20.03
2024-01-30T12:19:03.319Z,20.01
2024-01-30T12:21:31.853Z,20.01
2024-01-30T12:24:00.070Z,19.98
2024-01-30T12:26:29.640Z,20.00
2024-01-30T12:28:59.421Z,19.98
2024-01-30T12:31:29.163Z,19.98
2024-01-30T12:33:57.925Z,19.97
2024-01-30T12:36:27.904Z,19.98
2024-01-30T12:38:59.687Z,19.97
2024-01-30T12:41:30.897Z,19.86
2024-01-30T12:44:01.958Z,19.89
2024-01-30T12:46:31.124Z,19.91
2024-01-30T12:48:59.404Z,19.92
2024-01-30T12:51:27.694Z,19.92
2024-01-30T12:53:55.795Z,19.94
2024-01-30T12:56:23.867Z,19.94
2024-01-30T12:58:55.550Z,19.97
2024-01-30T13:01:24.137Z,19.98
2024-01-30T13:03:52.551Z,20.00
2024-01-30T13:06:20.949Z,20.01
2024-01-30T13:08:49.104Z,20.01
2024-01-30T13:11:21.333Z,20.01
2024-01-30T13:13:50.277Z,20.03
2024-01-30T13:16:19.838Z,20.05
2024-01-30T13:18:47.998Z,20.05
2024-01-30T13:21:16.357Z,20.06
2024-01-30T13:23:44.622Z,20.08
2024-01-30T13:26:13.130Z,20.06
2024-01-30T13:28:41.201Z,20.13
2024-01-30T13:31:09.392Z,20.14
2024-01-30T13:33:38.906Z,20.13
2024-01-30T13:36:07.627Z,20.13
2024-01-30T13:38:35.766Z,20.13
2024-01-30T13:41:06.584Z,20.11
2024-01-30T13:43:34.783Z,20.12
2024-01-30T13:46:02.959Z,20.12
2024-01-30T13:48:31.160Z,20.12
2024-01-30T13:51:00.732Z,20.11
2024-01-30T13:53:28.719Z,20.11
2024-01-30T13:55:56.818Z,20.11
2024-01-30T13:58:24.857Z,20.11
2024-01-30T14:00:53.011Z,20.10
2024-01-30T14:03:23.678Z,20.10
2024-01-30T14:05:54.197Z,20.10
2024-01-30T14:08:25.132Z,20.09
2024-01-30T14:10:53.164Z,20.09
2024-01-30T14:13:21.155Z,20.08
2024-01-30T14:15:50.451Z,20.08
2024-01-30T14:18:18.574Z,20.07
2024-01-30T14:20:46.727Z,20.07
2024-01-30T14:23:14.789Z,20.08
2024-01-30T14:25:44.157Z,20.07
2024-01-30T14:28:12.274Z,20.07
2024-01-30T14:30:40.256Z,20.07
2024-01-30T14:33:08.575Z,20.08
2024-01-30T14:35:36.757Z,20.06
2024-01-30T14:38:06.189Z,20.07
2024-01-30T14:40:34.354Z,20.07
2024-01-30T14:43:04.757Z,20.07
2024-01-30T14:45:33.895Z,20.07
2024-01-30T14:48:05.096Z,20.08
2024-01-30T14:50:33.201Z,20.08
2024-01-30T14:53:01.185Z,20.09
2024-01-30T14:55:31.832Z,20.09
2024-01-30T14:58:04.143Z,20.10
2024-01-30T15:00:32.237Z,20.11
2024-01-30T15:03:00.258Z,20.11
2024-01-30T15:05:28.261Z,20.12
2024-01-30T15:07:56.390Z,20.13
2024-01-30T15:10:24.693Z,20.12
2024-01-30T15:12:55.710Z,20.12
2024-01-30T15:15:27.342Z,20.13
2024-01-30T15:17:56.469Z,20.13
2024-01-30T15:20:24.502Z,20.14
2024-01-30T15:22:54.135Z,20.14
2024-01-30T15:25:22.155Z,20.15
2024-01-30T15:27:50.351Z,20.15
2024-01-30T15:30:20.721Z,20.16
2024-01-30T15:32:52.544Z,20.17
2024-01-30T15:35:20.840Z,20.17
2024-01-30T15:37:48.861Z,20.17
2024-01-30T15:40:19.691Z,20.16
2024-01-30T15:42:47.796Z,20.17
2024-01-30T15:45:18.946Z,20.18
2024-01-30T15:47:48.323Z,20.19
2024-01-30T15:50:20.336Z,20.18
2024-01-30T15:52:48.330Z,20.18
2024-01-30T15:55:16.694Z,20.19
2024-01-30T15:57:44.900Z,20.19
2024-01-30T16:00:14.779Z,20.20
2024-01-30T16:02:43.210Z,20.19
2024-01-30T16:05:11.543Z,20.19
2024-01-30T16:07:41.258Z,20.21
2024-01-30T16:10:09.873Z,20.20
2024-01-30T16:12:43.159Z,20.20
2024-01-30T16:15:11.166Z,20.21
2024-01-30T16:17:39.412Z,20.22
2024-01-30T16:20:10.412Z,20.22
2024-01-30T16:22:38.606Z,20.22
2024-01-30T16:25:08.918Z,20.24
2024-01-30T16:27:36.987Z,20.24
2024-01-30T16:30:10.303Z,20.25
2024-01-30T16:32:38.359Z,20.25
2024-01-30T16:35:06.981Z,20.25
2024-01-30T16:37:35.089Z,20.25
2024-01-30T16:40:03.866Z,20.27
2024-01-30T16:42:36.051Z,20.26
2024-01-30T16:45:04.234Z,20.28
2024-01-30T16:47:32.360Z,20.28
2024-01-30T16:50:03.352Z,20.27
2024-01-30T16:52:31.471Z,20.29
2024-01-30T16:54:59.485Z,20.29
2024-01-30T16:57:27.553Z,20.29
2024-01-30T16:59:57.459Z,20.28
2024-01-30T17:02:25.477Z,20.32
2024-01-30T17:04:53.670Z,20.31
2024-01-30T17:07:24.554Z,20.31
2024-01-30T17:09:54.766Z,20.31
2024-01-30T17:12:22.845Z,20.33
2024-01-30T17:14:51.064Z,20.34
2024-01-30T17:17:20.737Z,20.33
2024-01-30T17:19:48.827Z,20.34
2024-01-30T17:22:21.838Z,20.35
2024-01-30T17:24:51.117Z,20.35
2024-01-30T17:27:19.694Z,20.35
2024-01-30T17:29:47.918Z,20.36
2024-01-30T17:32:15.889Z,20.37
2024-01-30T17:34:45.335Z,20.38
2024-01-30T17:37:13.605Z,20.38
2024-01-30T17:39:41.620Z,20.39
2024-01-30T17:42:09.694Z,20.39
2024-01-30T17:44:41.525Z,20.40
2024-01-30T17:47:09.933Z,20.40
2024-01-30T17:49:37.924Z,20.41
2024-01-30T17:52:08.649Z,20.42
2024-01-30T17:54:36.722Z,20.42
2024-01-30T17:57:04.978Z,20.43
2024-01-30T17:59:33.030Z,20.44
2024-01-30T18:02:01.138Z,20.45
2024-01-30T18:04:33.235Z,20.46
2024-01-30T18:07:01.416Z,20.46
2024-01-30T18:09:31.753Z,20.46
2024-01-30T18:11:59.921Z,20.48
2024-01-30T18:14:27.927Z,20.49
2024-01-30T18:16:55.954Z,20.48
2024-01-30T18:19:24.078Z,20.50
2024-01-30T18:21:52.258Z,20.51
2024-01-30T18:24:22.910Z,20.52
2024-01-30T18:26:52.982Z,20.53
2024-01-30T18:29:20.960Z,20.55
2024-01-30T18:31:48.985Z,20.58
2024-01-30T18:34:17.216Z,20.56
2024-01-30T18:36:45.314Z,20.57
2024-01-30T18:39:13.296Z,20.57
2024-01-30T18:41:43.885Z,20.58
2024-01-30T18:44:13.484Z,20.59
2024-01-30T18:46:41.564Z,20.59
2024-01-30T18:49:09.767Z,20.60
2024-01-30T18:51:37.846Z,20.61
2024-01-30T18:54:05.843Z,20.62
2024-01-30T18:56:36.474Z,20.65
2024-01-30T18:59:04.536Z,20.64
2024-01-30T19:01:34.044Z,20.65
2024-01-30T19:04:02.275Z,20.65
2024-01-30T19:06:30.316Z,20.66
2024-01-30T19:08:58.409Z,20.66
2024-01-30T19:11:26.390Z,20.66
2024-01-30T19:13:54.414Z,20.68
2024-01-30T19:16:24.987Z,20.68
2024-01-30T19:18:54.455Z,20.66
2024-01-30T19:21:22.617Z,20.62
2024-01-30T19:23:50.601Z,20.62
2024-01-30T19:26:18.651Z,20.66
2024-01-30T19:28:47.937Z,20.69
2024-01-30T19:31:18.446Z,20.73
2024-01-30T19:33:47.295Z,20.76
2024-01-30T19:36:17.208Z,20.80
2024-01-30T19:38:45.185Z,20.83
2024-01-30T19:41:13.634Z,20.85
2024-01-30T19:43:41.794Z,20.88
2024-01-30T19:46:11.950Z,20.89
2024-01-30T19:48:40.414Z,20.91
2024-01-30T19:51:09.379Z,20.92
2024-01-30T19:53:39.594Z,20.93
2024-01-30T19:56:10.776Z,20.93
2024-01-30T19:58:38.894Z,20.95
2024-01-30T20:01:07.221Z,20.97
2024-01-30T20:03:35.531Z,20.98
2024-01-30T20:06:03.851Z,20.99
2024-01-30T20:08:34.311Z,21.00
2024-01-30T20:11:05.034Z,21.01
2024-01-30T20:13:33.318Z,21.01
2024-01-30T20:16:01.749Z,21.03
2024-01-30T20:18:31.599Z,21.03
2024-01-30T20:20:59.780Z,21.03
2024-01-30T20:23:28.003Z,21.04
2024-01-30T20:25:59.294Z,21.05
2024-01-30T20:28:28.905Z,21.07
2024-01-30T20:30:57.099Z,21.07
2024-01-30T20:33:25.724Z,21.07
2024-01-30T20:35:53.828Z,21.09
2024-01-30T20:38:24.397Z,21.09
2024-01-30T20:40:52.443Z,21.10
2024-01-30T20:43:20.432Z,21.11
2024-01-30T20:45:52.778Z,21.12
2024-01-30T20:48:22.046Z,21.12
2024-01-30T20:50:52.971Z,21.14
2024-01-30T20:53:21.560Z,21.11
2024-01-30T20:55:49.607Z,21.09
2024-01-30T20:58:18.220Z,21.08
2024-01-30T21:00:46.304Z,21.08
2024-01-30T21:03:15.850Z,21.09
2024-01-30T21:05:44.154Z,21.09
2024-01-30T21:08:13.348Z,21.09
2024-01-30T21:10:41.619Z,21.08
2024-01-30T21:13:10.285Z,21.10
2024-01-30T21:15:38.334Z,21.12
2024-01-30T21:18:09.407Z,21.12
2024-01-30T21:20:38.850Z,21.15
2024-01-30T21:23:06.808Z,21.14
2024-01-30T21:25:37.324Z,21.15
2024-01-30T21:28:05.853Z,21.16
2024-01-30T21:30:33.895Z,21.17
2024-01-30T21:33:02.450Z,21.17
2024-01-30T21:35:30.585Z,21.17
2024-01-30T21:38:02.550Z,21.17
2024-01-30T21:40:30.651Z,21.18
2024-01-30T21:42:58.858Z,21.18
2024-01-30T21:45:27.585Z,21.18
2024-01-30T21:47:55.662Z,21.17
2024-01-30T21:50:23.781Z,21.18
2024-01-30T21:52:53.172Z,21.17
2024-01-30T21:55:22.644Z,21.16
2024-01-30T21:57:50.758Z,21.11
2024-01-30T22:00:19.282Z,21.11
2024-01-30T22:02:47.274Z,21.12
2024-01-30T22:05:15.420Z,21.13
2024-01-30T22:07:43.842Z,21.14
2024-01-30T22:10:12.667Z,21.15
2024-01-30T22:12:41.984Z,21.16
2024-01-30T22:15:10.811Z,21.15
2024-01-30T22:17:38.800Z,21.15
2024-01-30T22:20:08.619Z,21.16
2024-01-30T22:22:36.875Z,21.14
2024-01-30T22:25:05.429Z,21.15
2024-01-30T22:27:33.423Z,21.15
2024-01-30T22:30:02.903Z,21.14
2024-01-30T22:32:31.174Z,21.15
2024-01-30T22:34:59.272Z,21.14
2024-01-30T22:37:27.467Z,21.14
2024-01-30T22:39:55.473Z,21.13
2024-01-30T22:42:23.557Z,21.12
2024-01-30T22:44:53.230Z,21.13
2024-01-30T22:47:22.598Z,21.12
2024-01-30T22:49:53.209Z,21.12
2024-01-30T22:52:21.305Z,21.12
2024-01-30T22:54:49.447Z,21.11
2024-01-30T22:57:17.521Z,21.11
2024-01-30T22:59:45.536Z,21.11
2024-01-30T23:02:13.609Z,21.10
2024-01-30T23:04:45.413Z,21.09
2024-01-30T23:07:17.868Z,21.09
2024-01-30T23:09:46.350Z,21.07
2024-01-30T23:12:14.301Z,21.08
2024-01-30T23:14:45.875Z,21.07
2024-01-30T23:17:14.032Z,21.07
2024-01-30T23:19:46.411Z,21.06
2024-01-30T23:22:14.584Z,21.05
2024-01-30T23:24:45.133Z,21.04
2024-01-30T23:27:13.222Z,21.02
2024-01-30T23:29:41.402Z,21.02
2024-01-30T23:32:09.325Z,20.96
2024-01-30T23:34:37.352Z,20.96
2024-01-30T23:37:10.203Z,20.94
2024-01-30T23:39:38.314Z,20.93
2024-01-30T23:42:06.634Z,20.92
2024-01-30T23:44:34.597Z,20.92
2024-01-30T23:47:02.570Z,20.92
2024-01-30T23:49:30.838Z,20.91
2024-01-30T23:51:59.041Z,20.91
2024-01-30T23:54:28.391Z,20.90
2024-01-30T23:56:59.370Z,20.89
2024-01-30T23:59:27.348Z,20.89
